createdAt,value
2024-04-02T00:01:48.950Z,2.20
2024-04-02T00:04:16.697Z,1.80
2024-04-02T00:06:44.174Z,1.90
2024-04-02T00:09:11.530Z,1.70
2024-04-02T00:11:38.955Z,1.70
2024-04-02T00:14:06.488Z,1.80
2024-04-02T00:16:33.941Z,2.00
2024-04-02T00:19:01.294Z,1.80
2024-04-02T00:21:29.948Z,2.30
2024-04-02T00:23:57.398Z,2.30
2024-04-02T00:26:24.777Z,2.10
2024-04-02T00:28:52.328Z,1.70
2024-04-02T00:31:21.720Z,2.40
2024-04-02T00:33:49.355Z,2.00
2024-04-02T00:36:16.740Z,2.20
2024-04-02T00:38:44.096Z,2.30
2024-04-02T00:41:11.498Z,2.60
2024-04-02T00:43:38.840Z,2.60
2024-04-02T00:46:06.263Z,2.20
2024-04-02T00:48:33.645Z,2.30
2024-04-02T00:51:01.061Z,2.30
2024-04-02T00:53:28.536Z,2.20
2024-04-02T00:55:55.889Z,2.00
2024-04-02T00:58:23.304Z,1.80
2024-04-02T01:00:51.398Z,2.10
2024-04-02T01:03:19.010Z,1.90
2024-04-02T01:05:46.405Z,1.90
2024-04-02T01:08:13.756Z,1.90
2024-04-02T01:10:41.156Z,2.00
2024-04-02T01:13:08.902Z,1.90
2024-04-02T01:15:36.249Z,1.60
2024-04-02T01:18:03.687Z,1.60
2024-04-02T01:20:31.094Z,1.70
2024-04-02T01:22:58.586Z,1.80
2024-04-02T01:25:25.913Z,1.80
2024-04-02T01:27:53.268Z,1.70
2024-04-02T01:30:20.635Z,1.70
2024-04-02T01:32:51.100Z,1.40
2024-04-02T01:35:19.069Z,1.20
2024-04-02T01:37:46.597Z,1.30
2024-04-02T01:40:13.973Z,1.50
2024-04-02T01:42:41.323Z,1.60
2024-04-02T01:45:09.354Z,2.10
2024-04-02T01:47:36.722Z,2.00
2024-04-02T01:50:04.758Z,2.00
2024-04-02T01:52:32.124Z,2.20
2024-04-02T01:54:59.461Z,2.00
2024-04-02T01:57:26.813Z,2.60
2024-04-02T01:59:54.225Z,2.40
2024-04-02T02:02:21.652Z,2.10
2024-04-02T02:04:49.194Z,2.10
2024-04-02T02:07:16.564Z,2.10
2024-04-02T02:09:43.926Z,2.20
2024-04-02T02:12:11.293Z,2.20
2024-04-02T02:14:38.676Z,2.40
2024-04-02T02:17:06.072Z,3.40
2024-04-02T02:19:33.439Z,2.40
2024-04-02T02:22:00.924Z,2.60
2024-04-02T02:24:28.277Z,2.70
2024-04-02T02:26:56.183Z,2.00
2024-04-02T02:29:26.509Z,1.70
2024-04-02T02:31:53.864Z,2.10
2024-04-02T02:34:21.283Z,1.80
2024-04-02T02:36:48.616Z,1.70
2024-04-02T02:39:15.983Z,2.20
2024-04-02T02:41:46.249Z,2.00
2024-04-02T02:44:13.646Z,2.10
2024-04-02T02:46:41.003Z,2.10
2024-04-02T02:49:08.382Z,2.20
2024-04-02T02:51:35.768Z,1.90
2024-04-02T02:54:04.383Z,2.00
2024-04-02T02:56:32.062Z,2.20
2024-04-02T02:58:59.445Z,2.40
2024-04-02T03:01:26.827Z,2.30
2024-04-02T03:03:54.340Z,2.10
2024-04-02T03:06:22.707Z,2.50
2024-04-02T03:08:50.090Z,2.90
2024-04-02T03:11:17.852Z,2.20
2024-04-02T03:13:45.402Z,2.50
2024-04-02T03:16:12.773Z,2.50
2024-04-02T03:18:40.267Z,2.20
2024-04-02T03:21:15.427Z,1.80
2024-04-02T03:23:43.174Z,1.70
2024-04-02T03:26:12.103Z,1.70
2024-04-02T03:28:40.158Z,1.80
2024-04-02T03:31:07.845Z,2.50
2024-04-02T03:33:35.222Z,2.40
2024-04-02T03:36:06.380Z,2.20
2024-04-02T03:38:34.369Z,2.10
2024-04-02T03:41:09.301Z,3.00
2024-04-02T03:43:37.128Z,2.80
2024-04-02T03:46:05.500Z,2.60
2024-04-02T03:48:33.245Z,2.60
2024-04-02T03:51:00.877Z,2.90
2024-04-02T03:53:28.332Z,2.80
2024-04-02T03:55:59.708Z,2.60
2024-04-02T03:58:27.648Z,2.80
2024-04-02T04:00:57.705Z,2.90
2024-04-02T04:03:26.573Z,2.30
2024-04-02T04:06:04.572Z,2.10
2024-04-02T04:08:32.743Z,3.60
2024-04-02T04:11:00.415Z,2.40
2024-04-02T04:13:28.048Z,2.60
2024-04-02T04:15:59.192Z,2.90
2024-04-02T04:18:27.374Z,2.80
2024-04-02T04:20:58.772Z,2.60
2024-04-02T04:23:26.290Z,2.50
2024-04-02T04:25:57.551Z,2.60
2024-04-02T04:28:25.238Z,2.90
2024-04-02T04:30:56.567Z,3.40
2024-04-02T04:33:24.094Z,3.30
2024-04-02T04:35:51.816Z,3.10
2024-04-02T04:38:19.791Z,3.00
2024-04-02T04:40:47.258Z,2.50
2024-04-02T04:43:16.767Z,3.00
2024-04-02T04:45:57.710Z,2.60
2024-04-02T04:48:25.082Z,3.10
2024-04-02T04:51:02.628Z,3.00
2024-04-02T04:53:30.266Z,3.10
2024-04-02T04:56:01.276Z,3.50
2024-04-02T04:58:28.888Z,3.50
2024-04-02T05:00:56.344Z,3.80
2024-04-02T05:03:23.775Z,4.10
2024-04-02T05:05:51.213Z,3.80
2024-04-02T05:08:18.881Z,4.00
2024-04-02T05:10:47.087Z,3.80
2024-04-02T05:13:17.604Z,4.00
2024-04-02T05:15:45.304Z,4.20
2024-04-02T05:18:12.914Z,4.20
2024-04-02T05:20:40.382Z,4.20
2024-04-02T05:23:07.979Z,4.90
2024-04-02T05:25:35.406Z,4.20
2024-04-02T05:28:02.811Z,3.90
2024-04-02T05:30:30.613Z,4.20
2024-04-02T05:32:58.015Z,4.70
2024-04-02T05:35:25.437Z,5.10
2024-04-02T05:37:53.585Z,4.00
2024-04-02T05:40:21.623Z,3.80
2024-04-02T05:42:49.110Z,4.70
2024-04-02T05:45:16.649Z,4.50
2024-04-02T05:47:44.619Z,4.30
2024-04-02T05:50:12.257Z,4.90
2024-04-02T05:52:39.726Z,4.40
2024-04-02T05:55:07.243Z,4.40
2024-04-02T05:57:34.586Z,4.40
2024-04-02T06:00:02.080Z,4.60
2024-04-02T06:02:29.807Z,4.70
2024-04-02T06:04:57.564Z,5.20
2024-04-02T06:07:25.179Z,5.00
2024-04-02T06:09:52.715Z,5.30
2024-04-02T06:12:20.054Z,4.50
2024-04-02T06:14:48.178Z,5.00
2024-04-02T06:17:16.208Z,5.40
2024-04-02T06:19:43.584Z,5.20
2024-04-02T06:22:10.915Z,3.90
2024-04-02T06:24:38.460Z,5.40
2024-04-02T06:27:06.803Z,4.60
2024-04-02T06:29:35.520Z,5.30
2024-04-02T06:32:03.288Z,4.90
2024-04-02T06:34:30.723Z,4.50
2024-04-02T06:36:58.085Z,4.60
2024-04-02T06:39:26.048Z,4.30
2024-04-02T06:41:53.594Z,4.50
2024-04-02T06:44:20.975Z,3.60
2024-04-02T06:46:50.899Z,3.60
2024-04-02T06:49:18.895Z,3.80
2024-04-02T06:51:46.281Z,3.00
2024-04-02T06:54:13.907Z,3.30
2024-04-02T06:56:41.942Z,4.00
2024-04-02T06:59:09.302Z,3.30
2024-04-02T07:01:36.650Z,3.30
2024-04-02T07:04:04.340Z,3.40
2024-04-02T07:06:31.702Z,3.90
2024-04-02T07:09:00.816Z,3.40
2024-04-02T07:11:28.204Z,2.50
2024-04-02T07:13:55.545Z,2.90
2024-04-02T07:16:22.970Z,3.20
2024-04-02T07:18:50.329Z,3.10
2024-04-02T07:21:17.716Z,3.90
2024-04-02T07:23:45.202Z,3.70
2024-04-02T07:26:12.557Z,3.10
2024-04-02T07:28:40.161Z,3.00
2024-04-02T07:31:07.653Z,3.00
2024-04-02T07:33:35.210Z,3.60
2024-04-02T07:36:05.618Z,3.30
2024-04-02T07:38:33.382Z,3.40
2024-04-02T07:41:01.000Z,2.80
2024-04-02T07:43:28.427Z,3.20
2024-04-02T07:45:56.000Z,3.40
2024-04-02T07:48:23.407Z,2.80
2024-04-02T07:50:50.837Z,3.90
2024-04-02T07:53:18.515Z,3.30
2024-04-02T07:55:46.412Z,3.80
2024-04-02T07:58:13.855Z,3.60
2024-04-02T08:00:42.763Z,3.00
2024-04-02T08:03:10.125Z,3.30
2024-04-02T08:05:37.721Z,3.20
2024-04-02T08:08:05.666Z,3.30
2024-04-02T08:10:33.013Z,3.40
2024-04-02T08:13:00.604Z,3.00
2024-04-02T08:15:27.975Z,3.40
2024-04-02T08:17:55.474Z,3.20
2024-04-02T08:20:22.892Z,3.80
2024-04-02T08:22:50.355Z,4.20
2024-04-02T08:25:17.735Z,3.50
2024-04-02T08:27:45.268Z,4.30
2024-04-02T08:30:13.263Z,3.40
2024-04-02T08:32:40.642Z,3.80
2024-04-02T08:35:10.849Z,3.90
2024-04-02T08:37:38.198Z,3.90
2024-04-02T08:40:06.482Z,4.80
2024-04-02T08:42:36.754Z,3.70
2024-04-02T08:45:10.427Z,5.30
2024-04-02T08:47:38.476Z,3.80
2024-04-02T08:50:06.861Z,4.70
2024-04-02T08:52:35.045Z,3.00
2024-04-02T08:55:03.917Z,4.80
2024-04-02T08:57:31.317Z,3.90
2024-04-02T08:59:58.750Z,3.50
2024-04-02T09:02:26.175Z,2.80
2024-04-02T09:04:53.650Z,2.90
2024-04-02T09:07:21.016Z,3.70
2024-04-02T09:09:48.580Z,2.50
2024-04-02T09:12:15.955Z,2.70
2024-04-02T09:14:47.410Z,2.50
2024-04-02T09:17:15.031Z,3.10
2024-04-02T09:19:42.432Z,3.30
2024-04-02T09:22:09.837Z,3.90
2024-04-02T09:24:37.453Z,3.60
2024-04-02T09:27:05.195Z,3.10
2024-04-02T09:29:32.559Z,2.90
2024-04-02T09:32:00.072Z,2.80
2024-04-02T09:34:27.431Z,2.70
2024-04-02T09:37:18.966Z,3.30
2024-04-02T09:39:46.437Z,3.10
2024-04-02T09:42:13.955Z,2.50
2024-04-02T09:44:41.961Z,2.60
2024-04-02T09:47:09.394Z,3.10
2024-04-02T09:49:36.742Z,3.40
2024-04-02T09:52:04.552Z,2.20
2024-04-02T09:54:32.052Z,3.00
2024-04-02T09:57:03.608Z,2.90
2024-04-02T09:59:31.190Z,3.00
2024-04-02T10:01:58.943Z,2.60
2024-04-02T10:04:26.352Z,2.80
2024-04-02T10:06:58.898Z,2.70
2024-04-02T10:09:42.638Z,3.20
2024-04-02T10:12:09.961Z,2.80
2024-04-02T10:14:38.016Z,2.80
2024-04-02T10:17:13.758Z,3.10
2024-04-02T10:19:45.283Z,3.00
2024-04-02T10:22:12.934Z,2.90
2024-04-02T10:24:41.237Z,4.50
2024-04-02T10:27:10.287Z,3.40
2024-04-02T10:29:37.787Z,3.10
2024-04-02T10:32:06.049Z,2.10
2024-04-02T10:34:33.435Z,3.50
2024-04-02T10:37:04.356Z,2.50
2024-04-02T10:39:34.770Z,3.00
2024-04-02T10:42:04.263Z,3.20
2024-04-02T10:44:31.793Z,2.90
2024-04-02T10:47:00.712Z,3.40
2024-04-02T10:49:28.305Z,3.40
2024-04-02T10:52:04.348Z,3.40
2024-04-02T10:54:31.834Z,2.90
2024-04-02T10:56:59.174Z,2.80
2024-04-02T10:59:26.576Z,3.20
2024-04-02T11:01:56.423Z,3.00
2024-04-02T11:04:24.491Z,2.90
2024-04-02T11:06:51.864Z,3.30
2024-04-02T11:09:19.421Z,3.10
2024-04-02T11:11:46.911Z,3.20
2024-04-02T11:14:15.455Z,2.70
2024-04-02T11:16:45.266Z,3.20
2024-04-02T11:19:12.614Z,2.70
2024-04-02T11:21:40.061Z,2.90
2024-04-02T11:24:35.344Z,3.20
2024-04-02T11:27:03.048Z,4.00
2024-04-02T11:29:30.505Z,8.10
2024-04-02T11:31:57.860Z,3.70
2024-04-02T11:34:25.231Z,6.50
2024-04-02T11:36:52.728Z,3.40
2024-04-02T11:39:20.069Z,3.20
2024-04-02T11:41:48.599Z,3.10
2024-04-02T11:44:17.467Z,2.80
2024-04-02T11:46:45.427Z,3.60
2024-04-02T11:49:12.762Z,3.30
2024-04-02T11:51:40.432Z,3.30
2024-04-02T11:54:07.812Z,3.40
2024-04-02T11:56:54.165Z,2.90
2024-04-02T11:59:40.605Z,3.00
2024-04-02T12:02:08.006Z,2.90
2024-04-02T12:04:35.747Z,3.30
2024-04-02T12:07:04.081Z,3.90
2024-04-02T12:09:31.454Z,3.30
2024-04-02T12:11:58.855Z,3.10
2024-04-02T12:14:26.229Z,2.80
2024-04-02T12:16:53.597Z,3.30
2024-04-02T12:19:21.351Z,3.30
2024-04-02T12:21:50.428Z,2.90
2024-04-02T12:24:18.127Z,3.20
2024-04-02T12:26:45.552Z,3.80
2024-04-02T12:29:12.926Z,3.10
2024-04-02T12:31:40.272Z,3.80
2024-04-02T12:34:07.658Z,3.20
2024-04-02T12:36:35.033Z,2.90
2024-04-02T12:39:04.055Z,3.70
2024-04-02T12:41:31.657Z,2.80
2024-04-02T12:43:59.058Z,3.50
2024-04-02T12:46:26.397Z,3.30
2024-04-02T12:49:08.094Z,3.30
2024-04-02T12:51:41.523Z,3.40
2024-04-02T12:54:09.058Z,2.70
2024-04-02T12:56:36.430Z,4.70
2024-04-02T12:59:04.034Z,21.70
2024-04-02T13:01:32.061Z,18.20
2024-04-02T13:03:59.506Z,3.90
2024-04-02T13:06:26.851Z,3.60
2024-04-02T13:08:54.766Z,2.10
2024-04-02T13:11:22.126Z,11.90
2024-04-02T13:13:53.237Z,3.40
2024-04-02T13:16:20.620Z,2.30
2024-04-02T13:18:48.149Z,2.40
2024-04-02T13:21:16.406Z,2.20
2024-04-02T13:23:44.071Z,2.50
2024-04-02T13:26:12.701Z,2.40
2024-04-02T13:28:40.642Z,2.40
2024-04-02T13:31:08.838Z,2.90
2024-04-02T13:33:37.020Z,2.70
2024-04-02T13:36:12.393Z,3.60
2024-04-02T13:38:44.685Z,3.40
2024-04-02T13:41:12.270Z,4.10
2024-04-02T13:43:39.752Z,3.50
2024-04-02T13:46:07.290Z,3.70
2024-04-02T13:48:34.965Z,3.70
2024-04-02T13:51:21.180Z,3.90
2024-04-02T13:53:51.899Z,2.90
2024-04-02T13:56:23.351Z,3.10
2024-04-02T13:58:51.708Z,3.10
2024-04-02T14:01:19.454Z,2.40
2024-04-02T14:03:49.296Z,2.30
2024-04-02T14:06:16.699Z,1.80
2024-04-02T14:08:44.116Z,2.30
2024-04-02T14:11:18.303Z,2.20
2024-04-02T14:13:48.030Z,2.20
2024-04-02T14:16:15.628Z,2.80
2024-04-02T14:18:43.220Z,2.20
2024-04-02T14:21:12.905Z,2.30
2024-04-02T14:23:40.424Z,1.90
2024-04-02T14:26:08.492Z,1.70
2024-04-02T14:28:37.395Z,2.20
2024-04-02T14:31:05.240Z,1.90
2024-04-02T14:33:33.661Z,2.40
2024-04-02T14:36:01.374Z,2.20
2024-04-02T14:38:28.862Z,2.20
2024-04-02T14:41:06.236Z,2.20
2024-04-02T14:43:34.107Z,1.70
2024-04-02T14:46:01.779Z,1.60
2024-04-02T14:48:29.761Z,1.40
2024-04-02T14:50:57.315Z,3.20
2024-04-02T14:53:24.748Z,4.80
2024-04-02T14:55:56.019Z,1.80
2024-04-02T14:58:23.641Z,1.60
2024-04-02T15:00:51.186Z,1.60
2024-04-02T15:03:18.666Z,1.50
2024-04-02T15:05:46.069Z,1.50
2024-04-02T15:08:13.963Z,1.60
2024-04-02T15:10:41.491Z,1.80
2024-04-02T15:13:09.294Z,1.60
2024-04-02T15:15:36.755Z,1.30
2024-04-02T15:18:05.174Z,1.40
2024-04-02T15:20:34.147Z,1.50
2024-04-02T15:23:02.882Z,1.90
2024-04-02T15:25:30.522Z,1.40
2024-04-02T15:27:57.882Z,2.00
2024-04-02T15:30:25.648Z,1.80
2024-04-02T15:32:53.056Z,2.20
2024-04-02T15:35:20.597Z,2.10
2024-04-02T15:37:47.944Z,1.70
2024-04-02T15:40:16.085Z,18.40
2024-04-02T15:42:43.617Z,31.70
2024-04-02T15:45:10.960Z,46.90
2024-04-02T15:47:38.478Z,33.30
2024-04-02T15:50:06.506Z,9.50
2024-04-02T15:52:34.807Z,4.40
2024-04-02T15:55:02.200Z,3.90
2024-04-02T15:57:29.619Z,2.70
2024-04-02T15:59:56.965Z,2.30
2024-04-02T16:02:24.551Z,2.60
2024-04-02T16:04:53.996Z,3.20
2024-04-02T16:07:21.492Z,20.20
2024-04-02T16:09:48.843Z,26.00
2024-04-02T16:12:17.725Z,5.80
2024-04-02T16:14:45.344Z,5.20
2024-04-02T16:17:12.966Z,4.00
2024-04-02T16:19:41.861Z,5.00
2024-04-02T16:22:09.892Z,4.70
2024-04-02T16:24:37.312Z,3.40
2024-04-02T16:27:05.244Z,2.80
2024-04-02T16:29:32.608Z,3.10
2024-04-02T16:31:59.974Z,3.60
2024-04-02T16:34:27.418Z,4.70
2024-04-02T16:36:54.789Z,2.90
2024-04-02T16:39:22.141Z,3.50
2024-04-02T16:41:49.780Z,3.70
2024-04-02T16:44:17.108Z,4.50
2024-04-02T16:46:44.620Z,4.30
2024-04-02T16:49:12.386Z,4.20
2024-04-02T16:51:39.891Z,4.90
2024-04-02T16:54:07.405Z,4.40
2024-04-02T16:56:34.776Z,3.40
2024-04-02T16:59:02.426Z,5.50
2024-04-02T17:01:29.951Z,4.90
2024-04-02T17:03:57.362Z,3.20
2024-04-02T17:06:25.750Z,2.80
2024-04-02T17:08:53.286Z,3.00
2024-04-02T17:11:21.024Z,3.80
2024-04-02T17:14:14.713Z,6.70
2024-04-02T17:16:42.077Z,5.50
2024-04-02T17:19:09.594Z,3.80
2024-04-02T17:21:37.142Z,4.90
2024-04-02T17:24:04.855Z,7.70
2024-04-02T17:26:34.010Z,5.80
2024-04-02T17:29:01.586Z,4.40
2024-04-02T17:31:28.937Z,3.80
2024-04-02T17:33:56.572Z,4.40
2024-04-02T17:36:23.960Z,4.20
2024-04-02T17:38:51.339Z,3.70
2024-04-02T17:41:18.813Z,3.90
2024-04-02T17:43:46.183Z,4.40
2024-04-02T17:46:13.590Z,4.70
2024-04-02T17:48:41.017Z,4.90
2024-04-02T17:51:11.877Z,4.10
2024-04-02T17:53:39.730Z,3.90
2024-04-02T17:56:08.313Z,3.10
2024-04-02T17:58:36.788Z,3.10
2024-04-02T18:01:12.851Z,4.00
2024-04-02T18:03:43.670Z,3.30
2024-04-02T18:06:11.806Z,4.40
2024-04-02T18:08:40.244Z,3.90
2024-04-02T18:11:08.158Z,2.90
2024-04-02T18:13:39.246Z,4.30
2024-04-02T18:16:08.270Z,4.80
2024-04-02T18:18:37.973Z,4.90
2024-04-02T18:21:06.635Z,5.40
2024-04-02T18:23:35.162Z,4.80
2024-04-02T18:26:04.632Z,5.20
2024-04-02T18:28:32.849Z,5.30
2024-04-02T18:31:00.236Z,5.10
2024-04-02T18:33:27.814Z,5.40
2024-04-02T18:35:55.580Z,5.20
2024-04-02T18:38:22.986Z,4.40
2024-04-02T18:40:50.382Z,5.30
2024-04-02T18:43:19.816Z,3.60
2024-04-02T18:45:47.169Z,4.70
2024-04-02T18:48:14.748Z,3.80
2024-04-02T18:50:42.177Z,3.30
2024-04-02T18:53:09.701Z,3.40
2024-04-02T18:55:37.108Z,3.30
2024-04-02T18:58:04.630Z,3.80
2024-04-02T19:00:32.010Z,4.30
2024-04-02T19:02:59.656Z,3.00
2024-04-02T19:05:27.133Z,2.60
2024-04-02T19:07:54.662Z,2.70
2024-04-02T19:10:22.021Z,2.60
2024-04-02T19:12:49.415Z,2.00
2024-04-02T19:15:17.031Z,2.20
2024-04-02T19:17:44.370Z,2.00
2024-04-02T19:20:12.723Z,2.20
2024-04-02T19:22:41.472Z,2.30
2024-04-02T19:25:09.095Z,2.40
2024-04-02T19:27:38.447Z,2.20
2024-04-02T19:30:06.432Z,1.80
2024-04-02T19:32:33.931Z,2.30
2024-04-02T19:35:02.960Z,1.70
2024-04-02T19:37:30.430Z,2.00
2024-04-02T19:39:57.815Z,2.10
2024-04-02T19:42:25.217Z,1.80
2024-04-02T19:44:54.007Z,1.90
2024-04-02T19:47:21.523Z,2.00
2024-04-02T19:49:48.876Z,2.40
2024-04-02T19:52:16.260Z,2.20
2024-04-02T19:54:44.010Z,2.40
2024-04-02T19:57:11.496Z,2.60
2024-04-02T19:59:39.022Z,2.00
2024-04-02T20:02:06.412Z,2.00
2024-04-02T20:04:33.834Z,2.10
2024-04-02T20:07:01.324Z,2.10
2024-04-02T20:09:28.667Z,3.10
2024-04-02T20:11:56.171Z,3.50
2024-04-02T20:14:23.520Z,3.00
2024-04-02T20:16:50.981Z,2.90
2024-04-02T20:19:18.306Z,3.00
2024-04-02T20:21:47.358Z,3.10
2024-04-02T20:24:16.017Z,2.70
2024-04-02T20:26:43.371Z,2.50
2024-04-02T20:29:10.885Z,2.50
2024-04-02T20:31:38.337Z,2.50
2024-04-02T20:34:05.894Z,2.50
2024-04-02T20:36:34.302Z,2.30
2024-04-02T20:39:01.701Z,2.50
2024-04-02T20:41:29.067Z,2.50
2024-04-02T20:43:56.428Z,2.20
2024-04-02T20:46:23.826Z,2.60
2024-04-02T20:48:52.783Z,1.70
2024-04-02T20:51:20.171Z,2.40
2024-04-02T20:53:47.526Z,2.70
2024-04-02T20:56:14.884Z,2.50
2024-04-02T20:58:43.797Z,2.40
2024-04-02T21:01:11.621Z,2.60
2024-04-02T21:03:39.427Z,2.50
2024-04-02T21:06:07.072Z,2.50
2024-04-02T21:08:35.350Z,2.90
2024-04-02T21:11:06.396Z,2.90
2024-04-02T21:13:33.752Z,2.50
2024-04-02T21:16:04.023Z,3.20
2024-04-02T21:18:35.217Z,3.10
2024-04-02T21:21:02.587Z,2.60
2024-04-02T21:23:29.938Z,2.50
2024-04-02T21:25:59.378Z,2.00
2024-04-02T21:28:27.327Z,2.00
2024-04-02T21:30:54.699Z,2.00
2024-04-02T21:33:22.158Z,1.70
2024-04-02T21:35:54.158Z,1.90
2024-04-02T21:38:21.562Z,2.00
2024-04-02T21:40:55.710Z,2.40
2024-04-02T21:43:23.528Z,2.20
2024-04-02T21:46:01.353Z,2.10
2024-04-02T21:48:29.627Z,2.10
2024-04-02T21:50:57.080Z,2.70
2024-04-02T21:53:26.955Z,2.10
2024-04-02T21:55:54.482Z,2.00
2024-04-02T21:58:21.851Z,1.90
2024-04-02T22:00:56.000Z,2.30
2024-04-02T22:03:23.447Z,2.20
2024-04-02T22:05:58.221Z,2.20
2024-04-02T22:08:26.026Z,2.10
2024-04-02T22:10:54.638Z,2.60
2024-04-02T22:13:22.026Z,2.20
2024-04-02T22:15:49.435Z,2.00
2024-04-02T22:18:16.849Z,2.20
2024-04-02T22:20:44.669Z,2.00
2024-04-02T22:23:12.708Z,2.00
2024-04-02T22:25:40.680Z,2.20
2024-04-02T22:28:08.300Z,2.20
2024-04-02T22:30:35.811Z,2.50
2024-04-02T22:33:03.735Z,2.00
2024-04-02T22:35:31.198Z,2.40
2024-04-02T22:37:58.535Z,3.00
2024-04-02T22:40:26.062Z,2.40
2024-04-02T22:42:53.498Z,2.10
2024-04-02T22:45:20.869Z,2.20
2024-04-02T22:47:48.224Z,2.20
2024-04-02T22:50:15.571Z,2.30
2024-04-02T22:52:42.928Z,2.10
2024-04-02T22:55:10.291Z,2.00
2024-04-02T22:57:37.708Z,2.20
2024-04-02T23:00:05.917Z,3.30
2024-04-02T23:02:33.282Z,2.40
2024-04-02T23:05:00.613Z,2.60
2024-04-02T23:07:28.027Z,2.30
2024-04-02T23:09:55.373Z,2.20
2024-04-02T23:12:22.700Z,2.10
2024-04-02T23:14:50.068Z,2.20
2024-04-02T23:17:17.462Z,1.90
2024-04-02T23:19:47.977Z,2.20
2024-04-02T23:22:15.699Z,2.20
2024-04-02T23:24:43.080Z,2.00
2024-04-02T23:27:10.609Z,2.40
2024-04-02T23:29:37.998Z,2.20
2024-04-02T23:32:05.452Z,1.90
2024-04-02T23:34:32.837Z,2.10
2024-04-02T23:37:00.222Z,2.10
2024-04-02T23:39:27.545Z,2.20
2024-04-02T23:41:54.922Z,2.40
2024-04-02T23:44:22.696Z,2.30
2024-04-02T23:46:50.103Z,2.10
2024-04-02T23:49:17.429Z,2.00
2024-04-02T23:51:44.792Z,1.90
2024-04-02T23:54:12.345Z,1.70
2024-04-02T23:56:39.712Z,1.80
2024-04-02T23:59:07.074Z,2.20
